sensor_id;sensor_type;location;lat;lon;timestamp;P1;durP1;ratioP1;P2;durP2;ratioP2
6973;SDS011;3527;52.376;8.990;2022-11-15T00:02:38;13.27;;;9.07;;
6973;SDS011;3527;52.376;8.990;2022-11-15T00:05:25;14.40;;;10.33;;
6973;SDS011;3527;52.376;8.990;2022-11-15T00:08:12;13.77;;;9.77;;
6973;SDS011;3527;52.376;8.990;2022-11-15T00:10:59;14.57;;;9.87;;
6973;SDS011;3527;52.376;8.990;2022-11-15T00:13:47;16.53;;;9.90;;
6973;SDS011;3527;52.376;8.990;2022-11-15T00:16:33;13.93;;;9.67;;
6973;SDS011;3527;52.376;8.990;2022-11-15T00:19:20;14.10;;;9.30;;
6973;SDS011;3527;52.376;8.990;2022-11-15T00:22:07;12.60;;;8.97;;
6973;SDS011;3527;52.376;8.990;2022-11-15T00:24:54;10.13;;;7.87;;
6973;SDS011;3527;52.376;8.990;2022-11-15T00:27:41;10.70;;;8.10;;
6973;SDS011;3527;52.376;8.990;2022-11-15T00:30:28;10.50;;;8.63;;
6973;SDS011;3527;52.376;8.990;2022-11-15T00:33:15;12.23;;;8.63;;
6973;SDS011;3527;52.376;8.990;2022-11-15T00:36:02;13.27;;;8.63;;
6973;SDS011;3527;52.376;8.990;2022-11-15T00:38:51;11.47;;;8.40;;
6973;SDS011;3527;52.376;8.990;2022-11-15T00:41:37;12.40;;;8.53;;
6973;SDS011;3527;52.376;8.990;2022-11-15T00:44:24;10.17;;;7.83;;
6973;SDS011;3527;52.376;8.990;2022-11-15T00:47:11;11.40;;;8.23;;
6973;SDS011;3527;52.376;8.990;2022-11-15T00:49:58;10.23;;;7.87;;
6973;SDS011;3527;52.376;8.990;2022-11-15T00:52:45;10.63;;;7.63;;
6973;SDS011;3527;52.376;8.990;2022-11-15T00:55:32;11.03;;;8.33;;
6973;SDS011;3527;52.376;8.990;2022-11-15T00:58:19;10.80;;;7.67;;
6973;SDS011;3527;52.376;8.990;2022-11-15T01:01:06;10.90;;;7.57;;
6973;SDS011;3527;52.376;8.990;2022-11-15T01:03:54;10.13;;;7.20;;
6973;SDS011;3527;52.376;8.990;2022-11-15T01:06:46;10.30;;;8.07;;
6973;SDS011;3527;52.376;8.990;2022-11-15T01:09:33;10.23;;;7.63;;
6973;SDS011;3527;52.376;8.990;2022-11-15T01:12:20;11.00;;;7.67;;
6973;SDS011;3527;52.376;8.990;2022-11-15T01:15:07;10.20;;;7.87;;
6973;SDS011;3527;52.376;8.990;2022-11-15T01:17:54;13.43;;;8.50;;
6973;SDS011;3527;52.376;8.990;2022-11-15T01:20:41;9.87;;;8.07;;
6973;SDS011;3527;52.376;8.990;2022-11-15T01:23:28;12.10;;;7.53;;
6973;SDS011;3527;52.376;8.990;2022-11-15T01:26:16;10.23;;;7.70;;
6973;SDS011;3527;52.376;8.990;2022-11-15T01:29:03;9.43;;;7.07;;
6973;SDS011;3527;52.376;8.990;2022-11-15T01:31:49;10.57;;;7.53;;
6973;SDS011;3527;52.376;8.990;2022-11-15T01:34:36;11.13;;;7.43;;
6973;SDS011;3527;52.376;8.990;2022-11-15T01:37:23;13.40;;;8.13;;
6973;SDS011;3527;52.376;8.990;2022-11-15T01:40:10;10.37;;;7.13;;
6973;SDS011;3527;52.376;8.990;2022-11-15T01:42:57;15.37;;;8.10;;
6973;SDS011;3527;52.376;8.990;2022-11-15T01:45:44;11.53;;;8.13;;
6973;SDS011;3527;52.376;8.990;2022-11-15T01:48:32;10.50;;;7.90;;
6973;SDS011;3527;52.376;8.990;2022-11-15T01:51:20;11.40;;;8.13;;
6973;SDS011;3527;52.376;8.990;2022-11-15T01:54:09;10.40;;;7.70;;
6973;SDS011;3527;52.376;8.990;2022-11-15T01:56:59;10.87;;;8.50;;
6973;SDS011;3527;52.376;8.990;2022-11-15T01:59:47;9.70;;;7.73;;
6973;SDS011;3527;52.376;8.990;2022-11-15T02:02:34;13.57;;;8.00;;
6973;SDS011;3527;52.376;8.990;2022-11-15T02:05:22;12.30;;;7.43;;
6973;SDS011;3527;52.376;8.990;2022-11-15T02:08:09;10.13;;;7.43;;
6973;SDS011;3527;52.376;8.990;2022-11-15T02:11:09;9.97;;;7.53;;
6973;SDS011;3527;52.376;8.990;2022-11-15T02:13:56;10.27;;;7.90;;
6973;SDS011;3527;52.376;8.990;2022-11-15T02:30:52;11.60;;;8.47;;
6973;SDS011;3527;52.376;8.990;2022-11-15T02:33:59;12.13;;;8.13;;
6973;SDS011;3527;52.376;8.990;2022-11-15T02:37:03;12.80;;;8.60;;
6973;SDS011;3527;52.376;8.990;2022-11-15T02:39:57;12.40;;;8.00;;
6973;SDS011;3527;52.376;8.990;2022-11-15T02:42:49;11.70;;;8.00;;
6973;SDS011;3527;52.376;8.990;2022-11-15T02:46:42;13.93;;;9.20;;
6973;SDS011;3527;52.376;8.990;2022-11-15T02:49:08;16.27;;;9.67;;
6973;SDS011;3527;52.376;8.990;2022-11-15T02:51:55;11.67;;;9.40;;
6973;SDS011;3527;52.376;8.990;2022-11-15T02:54:42;14.33;;;9.63;;
6973;SDS011;3527;52.376;8.990;2022-11-15T02:57:39;14.30;;;9.67;;
6973;SDS011;3527;52.376;8.990;2022-11-15T03:00:30;15.10;;;10.40;;
6973;SDS011;3527;52.376;8.990;2022-11-15T03:03:34;18.03;;;10.90;;
6973;SDS011;3527;52.376;8.990;2022-11-15T03:07:13;13.13;;;9.97;;
6973;SDS011;3527;52.376;8.990;2022-11-15T03:09:52;16.57;;;10.67;;
6973;SDS011;3527;52.376;8.990;2022-11-15T03:12:45;14.07;;;9.77;;
6973;SDS011;3527;52.376;8.990;2022-11-15T03:15:38;14.63;;;10.47;;
6973;SDS011;3527;52.376;8.990;2022-11-15T03:18:38;14.80;;;11.33;;
6973;SDS011;3527;52.376;8.990;2022-11-15T03:21:28;16.17;;;10.70;;
6973;SDS011;3527;52.376;8.990;2022-11-15T03:24:15;14.33;;;11.20;;
6973;SDS011;3527;52.376;8.990;2022-11-15T03:27:12;16.70;;;11.40;;
6973;SDS011;3527;52.376;8.990;2022-11-15T03:30:00;19.47;;;10.93;;
6973;SDS011;3527;52.376;8.990;2022-11-15T03:32:55;14.83;;;11.43;;
6973;SDS011;3527;52.376;8.990;2022-11-15T03:35:43;18.20;;;10.93;;
6973;SDS011;3527;52.376;8.990;2022-11-15T03:38:31;18.87;;;11.63;;
6973;SDS011;3527;52.376;8.990;2022-11-15T03:41:23;16.27;;;11.10;;
6973;SDS011;3527;52.376;8.990;2022-11-15T03:50:03;18.70;;;11.90;;
6973;SDS011;3527;52.376;8.990;2022-11-15T03:52:51;17.23;;;11.90;;
6973;SDS011;3527;52.376;8.990;2022-11-15T03:55:40;16.73;;;11.37;;
6973;SDS011;3527;52.376;8.990;2022-11-15T03:58:27;14.17;;;11.37;;
6973;SDS011;3527;52.376;8.990;2022-11-15T04:01:14;17.23;;;12.00;;
6973;SDS011;3527;52.376;8.990;2022-11-15T04:04:01;17.27;;;11.37;;
6973;SDS011;3527;52.376;8.990;2022-11-15T04:06:47;16.57;;;11.50;;
6973;SDS011;3527;52.376;8.990;2022-11-15T04:09:34;15.60;;;10.83;;
6973;SDS011;3527;52.376;8.990;2022-11-15T04:12:42;17.33;;;11.83;;
6973;SDS011;3527;52.376;8.990;2022-11-15T04:15:29;17.57;;;12.13;;
6973;SDS011;3527;52.376;8.990;2022-11-15T04:18:16;16.10;;;11.47;;
6973;SDS011;3527;52.376;8.990;2022-11-15T04:21:03;18.53;;;11.80;;
6973;SDS011;3527;52.376;8.990;2022-11-15T04:24:09;15.03;;;11.77;;
6973;SDS011;3527;52.376;8.990;2022-11-15T04:27:01;15.07;;;11.30;;
6973;SDS011;3527;52.376;8.990;2022-11-15T04:29:48;16.73;;;11.63;;
6973;SDS011;3527;52.376;8.990;2022-11-15T04:32:35;16.83;;;12.23;;
6973;SDS011;3527;52.376;8.990;2022-11-15T04:35:22;18.10;;;12.07;;
6973;SDS011;3527;52.376;8.990;2022-11-15T04:38:09;17.23;;;11.73;;
6973;SDS011;3527;52.376;8.990;2022-11-15T04:40:57;20.93;;;12.43;;
6973;SDS011;3527;52.376;8.990;2022-11-15T04:43:43;15.47;;;11.27;;
6973;SDS011;3527;52.376;8.990;2022-11-15T04:46:30;19.83;;;11.37;;
6973;SDS011;3527;52.376;8.990;2022-11-15T04:49:17;14.27;;;10.33;;
6973;SDS011;3527;52.376;8.990;2022-11-15T04:52:04;15.77;;;11.67;;
6973;SDS011;3527;52.376;8.990;2022-11-15T04:54:51;15.97;;;11.07;;
6973;SDS011;3527;52.376;8.990;2022-11-15T04:57:38;15.53;;;10.43;;
6973;SDS011;3527;52.376;8.990;2022-11-15T05:00:25;15.60;;;10.73;;
6973;SDS011;3527;52.376;8.990;2022-11-15T05:03:12;13.60;;;10.67;;
6973;SDS011;3527;52.376;8.990;2022-11-15T05:06:18;14.17;;;10.20;;
6973;SDS011;3527;52.376;8.990;2022-11-15T05:09:05;14.03;;;9.73;;
6973;SDS011;3527;52.376;8.990;2022-11-15T05:11:51;16.40;;;10.53;;
6973;SDS011;3527;52.376;8.990;2022-11-15T05:14:38;15.57;;;10.50;;
6973;SDS011;3527;52.376;8.990;2022-11-15T05:17:25;14.67;;;9.87;;
6973;SDS011;3527;52.376;8.990;2022-11-15T05:20:12;15.20;;;11.37;;
6973;SDS011;3527;52.376;8.990;2022-11-15T05:22:59;13.97;;;10.00;;
6973;SDS011;3527;52.376;8.990;2022-11-15T05:25:46;14.00;;;10.37;;
6973;SDS011;3527;52.376;8.990;2022-11-15T05:28:33;13.73;;;9.90;;
6973;SDS011;3527;52.376;8.990;2022-11-15T05:31:20;14.80;;;10.37;;
6973;SDS011;3527;52.376;8.990;2022-11-15T05:34:07;17.40;;;10.87;;
6973;SDS011;3527;52.376;8.990;2022-11-15T05:36:54;12.40;;;10.17;;
6973;SDS011;3527;52.376;8.990;2022-11-15T05:39:41;16.20;;;10.73;;
6973;SDS011;3527;52.376;8.990;2022-11-15T05:42:28;15.50;;;9.83;;
6973;SDS011;3527;52.376;8.990;2022-11-15T05:45:16;15.77;;;10.30;;
6973;SDS011;3527;52.376;8.990;2022-11-15T05:48:09;14.97;;;10.03;;
6973;SDS011;3527;52.376;8.990;2022-11-15T05:50:56;13.77;;;10.40;;
6973;SDS011;3527;52.376;8.990;2022-11-15T05:53:43;14.67;;;9.97;;
6973;SDS011;3527;52.376;8.990;2022-11-15T05:56:31;12.93;;;9.57;;
6973;SDS011;3527;52.376;8.990;2022-11-15T05:59:18;18.33;;;9.43;;
6973;SDS011;3527;52.376;8.990;2022-11-15T06:02:05;12.30;;;9.03;;
6973;SDS011;3527;52.376;8.990;2022-11-15T06:04:52;16.83;;;9.53;;
6973;SDS011;3527;52.376;8.990;2022-11-15T06:07:39;13.87;;;10.00;;
6973;SDS011;3527;52.376;8.990;2022-11-15T06:10:26;13.10;;;10.00;;
6973;SDS011;3527;52.376;8.990;2022-11-15T06:13:13;13.37;;;9.70;;
6973;SDS011;3527;52.376;8.990;2022-11-15T06:15:59;11.07;;;8.77;;
6973;SDS011;3527;52.376;8.990;2022-11-15T06:18:46;11.60;;;9.37;;
6973;SDS011;3527;52.376;8.990;2022-11-15T06:21:33;12.43;;;9.20;;
6973;SDS011;3527;52.376;8.990;2022-11-15T06:24:20;13.73;;;9.23;;
6973;SDS011;3527;52.376;8.990;2022-11-15T06:27:07;13.27;;;8.93;;
6973;SDS011;3527;52.376;8.990;2022-11-15T06:29:54;12.67;;;9.13;;
6973;SDS011;3527;52.376;8.990;2022-11-15T06:32:40;15.97;;;9.43;;
6973;SDS011;3527;52.376;8.990;2022-11-15T06:35:27;12.20;;;8.60;;
6973;SDS011;3527;52.376;8.990;2022-11-15T06:38:14;11.13;;;8.93;;
6973;SDS011;3527;52.376;8.990;2022-11-15T06:41:05;11.83;;;8.83;;
6973;SDS011;3527;52.376;8.990;2022-11-15T06:43:52;11.97;;;8.70;;
6973;SDS011;3527;52.376;8.990;2022-11-15T06:46:39;12.53;;;8.77;;
6973;SDS011;3527;52.376;8.990;2022-11-15T06:49:26;11.77;;;8.70;;
6973;SDS011;3527;52.376;8.990;2022-11-15T06:52:12;11.10;;;8.90;;
6973;SDS011;3527;52.376;8.990;2022-11-15T06:54:59;11.33;;;8.67;;
6973;SDS011;3527;52.376;8.990;2022-11-15T06:57:50;11.50;;;8.17;;
6973;SDS011;3527;52.376;8.990;2022-11-15T07:00:37;12.17;;;8.13;;
6973;SDS011;3527;52.376;8.990;2022-11-15T07:03:24;10.80;;;8.27;;
6973;SDS011;3527;52.376;8.990;2022-11-15T07:06:11;12.43;;;9.23;;
6973;SDS011;3527;52.376;8.990;2022-11-15T07:08:58;12.83;;;8.70;;
6973;SDS011;3527;52.376;8.990;2022-11-15T07:11:45;10.10;;;8.63;;
6973;SDS011;3527;52.376;8.990;2022-11-15T07:14:31;12.83;;;8.70;;
6973;SDS011;3527;52.376;8.990;2022-11-15T07:17:18;14.43;;;8.93;;
6973;SDS011;3527;52.376;8.990;2022-11-15T07:20:05;12.20;;;7.70;;
6973;SDS011;3527;52.376;8.990;2022-11-15T07:22:59;12.03;;;8.80;;
6973;SDS011;3527;52.376;8.990;2022-11-15T07:25:46;12.00;;;8.13;;
6973;SDS011;3527;52.376;8.990;2022-11-15T07:28:33;10.27;;;7.83;;
6973;SDS011;3527;52.376;8.990;2022-11-15T07:31:20;11.53;;;7.93;;
6973;SDS011;3527;52.376;8.990;2022-11-15T07:34:07;10.13;;;7.70;;
6973;SDS011;3527;52.376;8.990;2022-11-15T07:36:55;10.27;;;8.30;;
6973;SDS011;3527;52.376;8.990;2022-11-15T07:39:42;12.13;;;8.13;;
6973;SDS011;3527;52.376;8.990;2022-11-15T07:42:30;9.30;;;7.43;;
6973;SDS011;3527;52.376;8.990;2022-11-15T07:45:40;10.80;;;7.77;;
6973;SDS011;3527;52.376;8.990;2022-11-15T07:48:27;9.63;;;8.10;;
6973;SDS011;3527;52.376;8.990;2022-11-15T07:51:28;10.40;;;8.07;;
6973;SDS011;3527;52.376;8.990;2022-11-15T07:54:15;11.47;;;7.57;;
6973;SDS011;3527;52.376;8.990;2022-11-15T07:57:02;12.57;;;8.07;;
6973;SDS011;3527;52.376;8.990;2022-11-15T07:59:53;9.80;;;6.80;;
6973;SDS011;3527;52.376;8.990;2022-11-15T08:02:40;8.70;;;6.87;;
6973;SDS011;3527;52.376;8.990;2022-11-15T08:05:27;9.67;;;7.10;;
6973;SDS011;3527;52.376;8.990;2022-11-15T08:08:14;8.40;;;7.47;;
6973;SDS011;3527;52.376;8.990;2022-11-15T08:11:01;9.37;;;7.03;;
6973;SDS011;3527;52.376;8.990;2022-11-15T08:13:48;10.83;;;6.70;;
6973;SDS011;3527;52.376;8.990;2022-11-15T08:16:35;11.20;;;6.53;;
6973;SDS011;3527;52.376;8.990;2022-11-15T08:19:22;9.10;;;5.90;;
6973;SDS011;3527;52.376;8.990;2022-11-15T08:22:09;8.07;;;6.30;;
6973;SDS011;3527;52.376;8.990;2022-11-15T08:24:55;8.27;;;6.43;;
6973;SDS011;3527;52.376;8.990;2022-11-15T08:27:43;7.17;;;6.30;;
6973;SDS011;3527;52.376;8.990;2022-11-15T08:30:30;13.43;;;6.33;;
6973;SDS011;3527;52.376;8.990;2022-11-15T08:33:17;7.23;;;5.80;;
6973;SDS011;3527;52.376;8.990;2022-11-15T08:36:04;9.47;;;6.60;;
6973;SDS011;3527;52.376;8.990;2022-11-15T08:38:51;9.83;;;6.50;;
6973;SDS011;3527;52.376;8.990;2022-11-15T08:41:38;8.13;;;6.60;;
6973;SDS011;3527;52.376;8.990;2022-11-15T08:44:25;7.63;;;5.87;;
6973;SDS011;3527;52.376;8.990;2022-11-15T08:47:12;6.97;;;5.47;;
6973;SDS011;3527;52.376;8.990;2022-11-15T08:50:00;9.07;;;6.07;;
6973;SDS011;3527;52.376;8.990;2022-11-15T08:52:47;8.67;;;5.77;;
6973;SDS011;3527;52.376;8.990;2022-11-15T08:55:37;8.07;;;5.90;;
6973;SDS011;3527;52.376;8.990;2022-11-15T08:58:24;9.83;;;5.90;;
6973;SDS011;3527;52.376;8.990;2022-11-15T09:01:15;6.73;;;5.10;;
6973;SDS011;3527;52.376;8.990;2022-11-15T09:04:04;7.13;;;4.83;;
6973;SDS011;3527;52.376;8.990;2022-11-15T09:06:51;7.47;;;5.10;;
6973;SDS011;3527;52.376;8.990;2022-11-15T09:09:38;6.93;;;5.30;;
6973;SDS011;3527;52.376;8.990;2022-11-15T09:12:25;7.37;;;4.97;;
6973;SDS011;3527;52.376;8.990;2022-11-15T09:15:12;5.83;;;4.50;;
6973;SDS011;3527;52.376;8.990;2022-11-15T09:17:59;7.70;;;4.87;;
6973;SDS011;3527;52.376;8.990;2022-11-15T09:20:46;6.27;;;4.40;;
6973;SDS011;3527;52.376;8.990;2022-11-15T09:23:33;6.87;;;4.80;;
6973;SDS011;3527;52.376;8.990;2022-11-15T09:26:19;5.90;;;4.57;;
6973;SDS011;3527;52.376;8.990;2022-11-15T09:29:06;8.33;;;4.60;;
6973;SDS011;3527;52.376;8.990;2022-11-15T09:31:53;6.80;;;4.40;;
6973;SDS011;3527;52.376;8.990;2022-11-15T09:34:40;5.87;;;4.50;;
6973;SDS011;3527;52.376;8.990;2022-11-15T09:37:27;7.27;;;4.60;;
6973;SDS011;3527;52.376;8.990;2022-11-15T09:40:14;6.00;;;4.43;;
6973;SDS011;3527;52.376;8.990;2022-11-15T09:43:10;4.97;;;4.20;;
6973;SDS011;3527;52.376;8.990;2022-11-15T09:49:06;8.00;;;4.13;;
6973;SDS011;3527;52.376;8.990;2022-11-15T09:51:55;4.93;;;3.73;;
6973;SDS011;3527;52.376;8.990;2022-11-15T09:54:43;5.03;;;3.40;;
6973;SDS011;3527;52.376;8.990;2022-11-15T09:57:44;5.70;;;3.70;;
6973;SDS011;3527;52.376;8.990;2022-11-15T10:00:35;4.03;;;3.23;;
6973;SDS011;3527;52.376;8.990;2022-11-15T10:03:34;3.50;;;3.00;;
6973;SDS011;3527;52.376;8.990;2022-11-15T10:06:25;4.57;;;3.30;;
6973;SDS011;3527;52.376;8.990;2022-11-15T10:09:14;4.57;;;3.30;;
6973;SDS011;3527;52.376;8.990;2022-11-15T10:12:08;4.50;;;3.10;;
6973;SDS011;3527;52.376;8.990;2022-11-15T10:15:06;3.87;;;3.00;;
6973;SDS011;3527;52.376;8.990;2022-11-15T10:18:09;5.40;;;2.93;;
6973;SDS011;3527;52.376;8.990;2022-11-15T10:21:17;3.83;;;3.10;;
6973;SDS011;3527;52.376;8.990;2022-11-15T10:24:18;3.53;;;2.70;;
6973;SDS011;3527;52.376;8.990;2022-11-15T10:27:07;3.87;;;2.63;;
6973;SDS011;3527;52.376;8.990;2022-11-15T10:29:55;3.20;;;2.40;;
6973;SDS011;3527;52.376;8.990;2022-11-15T10:32:43;4.13;;;2.40;;
6973;SDS011;3527;52.376;8.990;2022-11-15T10:35:30;3.93;;;2.23;;
6973;SDS011;3527;52.376;8.990;2022-11-15T10:38:17;3.13;;;2.37;;
6973;SDS011;3527;52.376;8.990;2022-11-15T10:41:07;3.60;;;2.33;;
6973;SDS011;3527;52.376;8.990;2022-11-15T10:49:41;3.00;;;2.00;;
6973;SDS011;3527;52.376;8.990;2022-11-15T10:52:38;3.63;;;2.27;;
6973;SDS011;3527;52.376;8.990;2022-11-15T10:55:32;3.20;;;2.17;;
6973;SDS011;3527;52.376;8.990;2022-11-15T11:01:17;2.73;;;2.20;;
6973;SDS011;3527;52.376;8.990;2022-11-15T11:04:06;3.73;;;2.50;;
6973;SDS011;3527;52.376;8.990;2022-11-15T11:06:57;4.47;;;2.57;;
6973;SDS011;3527;52.376;8.990;2022-11-15T11:09:44;3.10;;;2.03;;
6973;SDS011;3527;52.376;8.990;2022-11-15T11:12:32;2.37;;;1.40;;
6973;SDS011;3527;52.376;8.990;2022-11-15T11:15:19;2.00;;;1.60;;
6973;SDS011;3527;52.376;8.990;2022-11-15T11:18:12;1.93;;;1.57;;
6973;SDS011;3527;52.376;8.990;2022-11-15T11:21:13;1.90;;;1.43;;
6973;SDS011;3527;52.376;8.990;2022-11-15T11:33:12;2.17;;;1.60;;
6973;SDS011;3527;52.376;8.990;2022-11-15T11:39:20;3.10;;;1.50;;
6973;SDS011;3527;52.376;8.990;2022-11-15T11:51:26;3.90;;;1.73;;
6973;SDS011;3527;52.376;8.990;2022-11-15T11:54:25;3.03;;;1.50;;
6973;SDS011;3527;52.376;8.990;2022-11-15T12:00:35;1.93;;;1.53;;
6973;SDS011;3527;52.376;8.990;2022-11-15T12:03:34;2.00;;;1.80;;
6973;SDS011;3527;52.376;8.990;2022-11-15T12:09:44;2.43;;;1.77;;
6973;SDS011;3527;52.376;8.990;2022-11-15T12:12:43;2.50;;;1.60;;
6973;SDS011;3527;52.376;8.990;2022-11-15T12:15:37;3.00;;;1.80;;
6973;SDS011;3527;52.376;8.990;2022-11-15T12:18:30;2.47;;;1.40;;
6973;SDS011;3527;52.376;8.990;2022-11-15T12:24:38;3.17;;;1.60;;
6973;SDS011;3527;52.376;8.990;2022-11-15T12:30:38;2.63;;;2.00;;
6973;SDS011;3527;52.376;8.990;2022-11-15T12:33:47;3.00;;;1.90;;
6973;SDS011;3527;52.376;8.990;2022-11-15T12:42:57;4.20;;;2.50;;
6973;SDS011;3527;52.376;8.990;2022-11-15T12:45:46;3.33;;;2.07;;
6973;SDS011;3527;52.376;8.990;2022-11-15T13:03:22;3.73;;;2.53;;
6973;SDS011;3527;52.376;8.990;2022-11-15T13:18:18;4.87;;;2.50;;
6973;SDS011;3527;52.376;8.990;2022-11-15T13:21:23;7.73;;;2.40;;
6973;SDS011;3527;52.376;8.990;2022-11-15T13:24:29;2.53;;;2.10;;
6973;SDS011;3527;52.376;8.990;2022-11-15T13:27:17;3.30;;;2.23;;
6973;SDS011;3527;52.376;8.990;2022-11-15T13:30:12;4.70;;;2.70;;
6973;SDS011;3527;52.376;8.990;2022-11-15T13:33:08;3.00;;;2.50;;
6973;SDS011;3527;52.376;8.990;2022-11-15T13:36:02;4.70;;;2.23;;
6973;SDS011;3527;52.376;8.990;2022-11-15T13:42:19;6.63;;;2.57;;
6973;SDS011;3527;52.376;8.990;2022-11-15T13:45:11;4.83;;;2.40;;
6973;SDS011;3527;52.376;8.990;2022-11-15T13:48:02;4.33;;;2.40;;
6973;SDS011;3527;52.376;8.990;2022-11-15T13:50:50;4.40;;;2.27;;
6973;SDS011;3527;52.376;8.990;2022-11-15T13:53:37;3.70;;;2.20;;
6973;SDS011;3527;52.376;8.990;2022-11-15T13:56:27;2.50;;;2.20;;
6973;SDS011;3527;52.376;8.990;2022-11-15T13:59:18;3.87;;;2.30;;
6973;SDS011;3527;52.376;8.990;2022-11-15T14:02:18;3.97;;;2.70;;
6973;SDS011;3527;52.376;8.990;2022-11-15T14:05:15;3.20;;;2.33;;
6973;SDS011;3527;52.376;8.990;2022-11-15T14:11:16;4.57;;;2.50;;
6973;SDS011;3527;52.376;8.990;2022-11-15T14:16:57;4.63;;;2.20;;
6973;SDS011;3527;52.376;8.990;2022-11-15T14:19:45;3.63;;;2.80;;
6973;SDS011;3527;52.376;8.990;2022-11-15T14:22:32;5.10;;;3.10;;
6973;SDS011;3527;52.376;8.990;2022-11-15T14:25:20;3.77;;;2.90;;
6973;SDS011;3527;52.376;8.990;2022-11-15T14:31:24;3.90;;;3.00;;
6973;SDS011;3527;52.376;8.990;2022-11-15T14:34:11;5.23;;;2.87;;
6973;SDS011;3527;52.376;8.990;2022-11-15T14:36:58;4.83;;;3.20;;
6973;SDS011;3527;52.376;8.990;2022-11-15T14:39:45;4.40;;;2.37;;
6973;SDS011;3527;52.376;8.990;2022-11-15T14:42:32;4.10;;;2.77;;
6973;SDS011;3527;52.376;8.990;2022-11-15T14:45:21;4.63;;;2.90;;
6973;SDS011;3527;52.376;8.990;2022-11-15T14:48:08;4.13;;;2.90;;
6973;SDS011;3527;52.376;8.990;2022-11-15T14:50:56;5.67;;;2.60;;
6973;SDS011;3527;52.376;8.990;2022-11-15T14:53:43;5.13;;;2.60;;
6973;SDS011;3527;52.376;8.990;2022-11-15T14:56:32;6.10;;;2.93;;
6973;SDS011;3527;52.376;8.990;2022-11-15T14:59:19;4.33;;;2.90;;
6973;SDS011;3527;52.376;8.990;2022-11-15T15:02:19;4.97;;;2.73;;
6973;SDS011;3527;52.376;8.990;2022-11-15T15:05:12;3.80;;;3.30;;
6973;SDS011;3527;52.376;8.990;2022-11-15T15:08:02;3.90;;;2.80;;
6973;SDS011;3527;52.376;8.990;2022-11-15T15:10:51;4.97;;;2.80;;
6973;SDS011;3527;52.376;8.990;2022-11-15T15:13:38;3.77;;;2.40;;
6973;SDS011;3527;52.376;8.990;2022-11-15T15:16:25;4.17;;;3.00;;
6973;SDS011;3527;52.376;8.990;2022-11-15T15:19:12;3.37;;;2.60;;
6973;SDS011;3527;52.376;8.990;2022-11-15T15:21:59;4.37;;;2.77;;
6973;SDS011;3527;52.376;8.990;2022-11-15T15:24:46;6.07;;;2.97;;
6973;SDS011;3527;52.376;8.990;2022-11-15T15:27:33;3.40;;;2.60;;
6973;SDS011;3527;52.376;8.990;2022-11-15T15:30:21;3.63;;;2.67;;
6973;SDS011;3527;52.376;8.990;2022-11-15T15:33:09;4.87;;;2.87;;
6973;SDS011;3527;52.376;8.990;2022-11-15T15:35:56;5.13;;;3.40;;
6973;SDS011;3527;52.376;8.990;2022-11-15T15:38:44;5.20;;;3.57;;
6973;SDS011;3527;52.376;8.990;2022-11-15T15:41:33;5.33;;;3.20;;
6973;SDS011;3527;52.376;8.990;2022-11-15T15:44:20;6.03;;;2.83;;
6973;SDS011;3527;52.376;8.990;2022-11-15T15:47:09;3.90;;;3.10;;
6973;SDS011;3527;52.376;8.990;2022-11-15T15:50:02;4.13;;;2.80;;
6973;SDS011;3527;52.376;8.990;2022-11-15T15:52:54;5.87;;;3.20;;
6973;SDS011;3527;52.376;8.990;2022-11-15T15:55:43;7.90;;;3.47;;
6973;SDS011;3527;52.376;8.990;2022-11-15T15:58:30;6.00;;;2.97;;
6973;SDS011;3527;52.376;8.990;2022-11-15T16:01:19;4.13;;;3.47;;
6973;SDS011;3527;52.376;8.990;2022-11-15T16:04:06;5.17;;;3.10;;
6973;SDS011;3527;52.376;8.990;2022-11-15T16:06:54;4.03;;;3.13;;
6973;SDS011;3527;52.376;8.990;2022-11-15T16:09:45;5.13;;;3.83;;
6973;SDS011;3527;52.376;8.990;2022-11-15T16:12:47;6.40;;;4.27;;
6973;SDS011;3527;52.376;8.990;2022-11-15T16:15:35;7.37;;;4.90;;
6973;SDS011;3527;52.376;8.990;2022-11-15T16:18:22;8.13;;;4.60;;
6973;SDS011;3527;52.376;8.990;2022-11-15T16:21:09;6.53;;;4.03;;
6973;SDS011;3527;52.376;8.990;2022-11-15T16:23:56;5.40;;;4.27;;
6973;SDS011;3527;52.376;8.990;2022-11-15T16:26:43;7.20;;;3.60;;
6973;SDS011;3527;52.376;8.990;2022-11-15T16:29:32;9.80;;;4.33;;
6973;SDS011;3527;52.376;8.990;2022-11-15T16:32:19;5.77;;;4.00;;
6973;SDS011;3527;52.376;8.990;2022-11-15T16:35:07;6.43;;;3.87;;
6973;SDS011;3527;52.376;8.990;2022-11-15T16:37:57;5.37;;;3.60;;
6973;SDS011;3527;52.376;8.990;2022-11-15T16:40:44;4.30;;;3.23;;
6973;SDS011;3527;52.376;8.990;2022-11-15T16:43:31;4.00;;;3.53;;
6973;SDS011;3527;52.376;8.990;2022-11-15T16:46:19;4.43;;;3.43;;
6973;SDS011;3527;52.376;8.990;2022-11-15T16:49:13;5.87;;;4.10;;
6973;SDS011;3527;52.376;8.990;2022-11-15T16:52:01;4.83;;;4.10;;
6973;SDS011;3527;52.376;8.990;2022-11-15T16:54:48;4.83;;;3.73;;
6973;SDS011;3527;52.376;8.990;2022-11-15T16:57:35;6.23;;;4.57;;
6973;SDS011;3527;52.376;8.990;2022-11-15T17:00:22;5.77;;;4.10;;
6973;SDS011;3527;52.376;8.990;2022-11-15T17:03:10;6.83;;;4.80;;
6973;SDS011;3527;52.376;8.990;2022-11-15T17:05:57;7.00;;;4.90;;
6973;SDS011;3527;52.376;8.990;2022-11-15T17:08:47;7.70;;;4.93;;
6973;SDS011;3527;52.376;8.990;2022-11-15T17:11:34;5.87;;;4.30;;
6973;SDS011;3527;52.376;8.990;2022-11-15T17:14:21;6.23;;;4.67;;
6973;SDS011;3527;52.376;8.990;2022-11-15T17:17:09;6.30;;;4.20;;
6973;SDS011;3527;52.376;8.990;2022-11-15T17:19:56;5.93;;;4.47;;
6973;SDS011;3527;52.376;8.990;2022-11-15T17:22:43;5.90;;;4.33;;
6973;SDS011;3527;52.376;8.990;2022-11-15T17:25:30;10.17;;;4.37;;
6973;SDS011;3527;52.376;8.990;2022-11-15T17:28:17;6.60;;;4.30;;
6973;SDS011;3527;52.376;8.990;2022-11-15T17:31:05;6.00;;;4.40;;
6973;SDS011;3527;52.376;8.990;2022-11-15T17:33:57;4.93;;;4.20;;
6973;SDS011;3527;52.376;8.990;2022-11-15T17:36:44;7.57;;;4.90;;
6973;SDS011;3527;52.376;8.990;2022-11-15T17:39:31;7.73;;;4.43;;
6973;SDS011;3527;52.376;8.990;2022-11-15T17:42:18;5.57;;;4.40;;
6973;SDS011;3527;52.376;8.990;2022-11-15T17:45:05;5.97;;;4.50;;
6973;SDS011;3527;52.376;8.990;2022-11-15T17:47:56;5.13;;;4.00;;
6973;SDS011;3527;52.376;8.990;2022-11-15T17:50:43;7.83;;;4.90;;
6973;SDS011;3527;52.376;8.990;2022-11-15T17:53:33;8.47;;;4.53;;
6973;SDS011;3527;52.376;8.990;2022-11-15T17:56:23;7.23;;;4.33;;
6973;SDS011;3527;52.376;8.990;2022-11-15T17:59:13;7.30;;;5.73;;
6973;SDS011;3527;52.376;8.990;2022-11-15T18:02:08;6.50;;;4.80;;
6973;SDS011;3527;52.376;8.990;2022-11-15T18:04:55;6.50;;;4.60;;
6973;SDS011;3527;52.376;8.990;2022-11-15T18:07:42;6.63;;;4.70;;
6973;SDS011;3527;52.376;8.990;2022-11-15T18:10:29;7.07;;;5.07;;
6973;SDS011;3527;52.376;8.990;2022-11-15T18:13:16;7.60;;;4.50;;
6973;SDS011;3527;52.376;8.990;2022-11-15T18:16:03;9.00;;;4.97;;
6973;SDS011;3527;52.376;8.990;2022-11-15T18:18:52;6.50;;;4.80;;
6973;SDS011;3527;52.376;8.990;2022-11-15T18:21:40;7.47;;;4.20;;
6973;SDS011;3527;52.376;8.990;2022-11-15T18:24:47;6.83;;;4.60;;
6973;SDS011;3527;52.376;8.990;2022-11-15T18:27:34;8.20;;;4.50;;
6973;SDS011;3527;52.376;8.990;2022-11-15T18:30:21;6.40;;;5.00;;
6973;SDS011;3527;52.376;8.990;2022-11-15T18:33:08;6.33;;;4.70;;
6973;SDS011;3527;52.376;8.990;2022-11-15T18:36:02;8.30;;;5.07;;
6973;SDS011;3527;52.376;8.990;2022-11-15T18:38:54;8.30;;;4.63;;
6973;SDS011;3527;52.376;8.990;2022-11-15T18:41:43;6.00;;;5.00;;
6973;SDS011;3527;52.376;8.990;2022-11-15T18:44:32;5.70;;;4.33;;
6973;SDS011;3527;52.376;8.990;2022-11-15T18:47:20;6.60;;;4.70;;
6973;SDS011;3527;52.376;8.990;2022-11-15T18:50:07;6.50;;;5.10;;
6973;SDS011;3527;52.376;8.990;2022-11-15T18:52:54;6.00;;;4.63;;
6973;SDS011;3527;52.376;8.990;2022-11-15T18:55:41;6.57;;;4.50;;
6973;SDS011;3527;52.376;8.990;2022-11-15T18:58:32;8.87;;;5.00;;
6973;SDS011;3527;52.376;8.990;2022-11-15T19:01:24;7.67;;;5.37;;
6973;SDS011;3527;52.376;8.990;2022-11-15T19:04:14;6.70;;;4.77;;
6973;SDS011;3527;52.376;8.990;2022-11-15T19:07:04;5.23;;;4.67;;
6973;SDS011;3527;52.376;8.990;2022-11-15T19:09:51;5.93;;;4.50;;
6973;SDS011;3527;52.376;8.990;2022-11-15T19:12:38;6.70;;;4.63;;
6973;SDS011;3527;52.376;8.990;2022-11-15T19:15:25;5.47;;;4.27;;
6973;SDS011;3527;52.376;8.990;2022-11-15T19:18:13;7.43;;;4.23;;